sensor_id;sensor_type;location;lat;lon;timestamp;pressure;altitude;pressure_sealevel;temperature;humidity
62057;BME280;48016;50.284;18.860;2024-01-06T00:01:33;97098.08;;;-0.16;91.83
62057;BME280;48016;50.284;18.860;2024-01-06T00:04:00;97101.97;;;-0.15;91.70
62057;BME280;48016;50.284;18.860;2024-01-06T00:06:26;97101.98;;;-0.12;91.74
62057;BME280;48016;50.284;18.860;2024-01-06T00:08:53;97091.23;;;-0.11;91.70
62057;BME280;48016;50.284;18.860;2024-01-06T00:11:22;97086.83;;;-0.13;91.73
62057;BME280;48016;50.284;18.860;2024-01-06T00:13:49;97088.91;;;-0.13;91.70
62057;BME280;48016;50.284;18.860;2024-01-06T00:16:19;97094.73;;;-0.14;91.67
62057;BME280;48016;50.284;18.860;2024-01-06T00:18:47;97099.04;;;-0.12;91.69
62057;BME280;48016;50.284;18.860;2024-01-06T00:21:14;97096.98;;;-0.10;91.59
62057;BME280;48016;50.284;18.860;2024-01-06T00:23:41;97091.46;;;-0.09;91.54
62057;BME280;48016;50.284;18.860;2024-01-06T00:26:07;97085.64;;;-0.08;91.67
62057;BME280;48016;50.284;18.860;2024-01-06T00:28:38;97079.78;;;-0.07;91.52
62057;BME280;48016;50.284;18.860;2024-01-06T00:31:06;97085.50;;;-0.05;91.44
62057;BME280;48016;50.284;18.860;2024-01-06T00:33:32;97084.64;;;-0.05;91.44
62057;BME280;48016;50.284;18.860;2024-01-06T00:35:59;97080.61;;;-0.03;91.51
62057;BME280;48016;50.284;18.860;2024-01-06T00:38:25;97082.25;;;0.02;91.61
62057;BME280;48016;50.284;18.860;2024-01-06T00:40:52;97084.20;;;0.04;91.47
62057;BME280;48016;50.284;18.860;2024-01-06T00:43:19;97089.29;;;0.03;91.38
62057;BME280;48016;50.284;18.860;2024-01-06T00:45:45;97091.23;;;0.03;91.38
62057;BME280;48016;50.284;18.860;2024-01-06T00:48:12;97091.59;;;0.00;91.27
62057;BME280;48016;50.284;18.860;2024-01-06T00:50:39;97095.29;;;-0.04;91.33
62057;BME280;48016;50.284;18.860;2024-01-06T00:53:05;97098.25;;;-0.10;91.22
62057;BME280;48016;50.284;18.860;2024-01-06T00:55:32;97097.34;;;-0.13;91.35
62057;BME280;48016;50.284;18.860;2024-01-06T00:57:58;97091.20;;;-0.14;91.48
62057;BME280;48016;50.284;18.860;2024-01-06T01:00:25;97096.51;;;-0.17;91.43
62057;BME280;48016;50.284;18.860;2024-01-06T01:02:53;97098.92;;;-0.18;91.53
62057;BME280;48016;50.284;18.860;2024-01-06T01:05:20;97105.04;;;-0.16;91.63
62057;BME280;48016;50.284;18.860;2024-01-06T01:07:47;97106.16;;;-0.13;91.44
62057;BME280;48016;50.284;18.860;2024-01-06T01:10:13;97108.17;;;-0.10;91.52
62057;BME280;48016;50.284;18.860;2024-01-06T01:12:40;97108.30;;;-0.06;91.54
62057;BME280;48016;50.284;18.860;2024-01-06T01:15:07;97112.81;;;-0.01;91.45
62057;BME280;48016;50.284;18.860;2024-01-06T01:17:33;97112.37;;;0.02;91.42
62057;BME280;48016;50.284;18.860;2024-01-06T01:20:00;97112.19;;;0.06;91.37
62057;BME280;48016;50.284;18.860;2024-01-06T01:22:27;97115.55;;;0.11;91.48
62057;BME280;48016;50.284;18.860;2024-01-06T01:24:53;97113.17;;;0.15;91.46
62057;BME280;48016;50.284;18.860;2024-01-06T01:27:20;97116.23;;;0.17;91.25
62057;BME280;48016;50.284;18.860;2024-01-06T01:29:46;97112.21;;;0.18;91.24
62057;BME280;48016;50.284;18.860;2024-01-06T01:32:14;97110.20;;;0.19;91.18
62057;BME280;48016;50.284;18.860;2024-01-06T01:34:41;97111.34;;;0.18;91.08
62057;BME280;48016;50.284;18.860;2024-01-06T01:37:07;97108.54;;;0.17;91.05
62057;BME280;48016;50.284;18.860;2024-01-06T01:39:34;97105.70;;;0.18;91.18
62057;BME280;48016;50.284;18.860;2024-01-06T01:42:01;97105.36;;;0.20;91.09
62057;BME280;48016;50.284;18.860;2024-01-06T01:44:27;97100.05;;;0.19;90.90
62057;BME280;48016;50.284;18.860;2024-01-06T01:46:54;97106.41;;;0.21;91.12
62057;BME280;48016;50.284;18.860;2024-01-06T01:49:20;97108.67;;;0.24;91.11
62057;BME280;48016;50.284;18.860;2024-01-06T01:51:47;97105.65;;;0.26;90.99
62057;BME280;48016;50.284;18.860;2024-01-06T01:54:15;97103.48;;;0.26;90.92
62057;BME280;48016;50.284;18.860;2024-01-06T01:56:42;97107.05;;;0.23;90.86
62057;BME280;48016;50.284;18.860;2024-01-06T01:59:12;97111.61;;;0.21;90.94
62057;BME280;48016;50.284;18.860;2024-01-06T02:01:40;97112.91;;;0.17;90.98
62057;BME280;48016;50.284;18.860;2024-01-06T02:04:08;97112.43;;;0.10;90.99
62057;BME280;48016;50.284;18.860;2024-01-06T02:06:34;97110.72;;;0.05;91.05
62057;BME280;48016;50.284;18.860;2024-01-06T02:09:01;97108.95;;;0.03;91.37
62057;BME280;48016;50.284;18.860;2024-01-06T02:11:28;97104.67;;;0.04;91.30
62057;BME280;48016;50.284;18.860;2024-01-06T02:13:54;97102.03;;;0.08;91.22
62057;BME280;48016;50.284;18.860;2024-01-06T02:16:21;97101.78;;;0.13;91.22
62057;BME280;48016;50.284;18.860;2024-01-06T02:18:48;97106.37;;;0.17;91.27
62057;BME280;48016;50.284;18.860;2024-01-06T02:21:16;97108.61;;;0.22;91.08
62057;BME280;48016;50.284;18.860;2024-01-06T02:23:43;97100.93;;;0.27;91.06
62057;BME280;48016;50.284;18.860;2024-01-06T02:26:10;97093.95;;;0.29;91.01
62057;BME280;48016;50.284;18.860;2024-01-06T02:28:37;97092.02;;;0.32;91.11
62057;BME280;48016;50.284;18.860;2024-01-06T02:31:04;97093.95;;;0.35;90.90
62057;BME280;48016;50.284;18.860;2024-01-06T02:33:30;97091.12;;;0.34;90.87
62057;BME280;48016;50.284;18.860;2024-01-06T02:35:57;97087.77;;;0.33;90.94
62057;BME280;48016;50.284;18.860;2024-01-06T02:38:24;97083.41;;;0.32;90.92
62057;BME280;48016;50.284;18.860;2024-01-06T02:40:50;97082.83;;;0.34;91.01
62057;BME280;48016;50.284;18.860;2024-01-06T02:43:17;97078.90;;;0.34;90.98
62057;BME280;48016;50.284;18.860;2024-01-06T02:45:43;97083.17;;;0.32;91.02
62057;BME280;48016;50.284;18.860;2024-01-06T02:48:10;97086.63;;;0.30;90.96
62057;BME280;48016;50.284;18.860;2024-01-06T02:50:37;97083.96;;;0.30;91.06
62057;BME280;48016;50.284;18.860;2024-01-06T02:53:03;97082.98;;;0.31;91.02
62057;BME280;48016;50.284;18.860;2024-01-06T02:55:30;97080.66;;;0.33;91.08
62057;BME280;48016;50.284;18.860;2024-01-06T02:57:56;97080.59;;;0.36;91.13
62057;BME280;48016;50.284;18.860;2024-01-06T03:00:23;97079.27;;;0.38;91.09
62057;BME280;48016;50.284;18.860;2024-01-06T03:02:50;97079.28;;;0.40;91.13
62057;BME280;48016;50.284;18.860;2024-01-06T03:05:16;97077.69;;;0.44;91.10
62057;BME280;48016;50.284;18.860;2024-01-06T03:07:43;97067.17;;;0.44;91.03
62057;BME280;48016;50.284;18.860;2024-01-06T03:10:10;97069.16;;;0.43;91.10
62057;BME280;48016;50.284;18.860;2024-01-06T03:12:37;97063.84;;;0.43;91.16
62057;BME280;48016;50.284;18.860;2024-01-06T03:15:04;97060.77;;;0.42;91.08
62057;BME280;48016;50.284;18.860;2024-01-06T03:17:30;97060.67;;;0.44;91.14
62057;BME280;48016;50.284;18.860;2024-01-06T03:19:57;97061.73;;;0.48;91.18
62057;BME280;48016;50.284;18.860;2024-01-06T03:22:23;97061.91;;;0.52;91.05
62057;BME280;48016;50.284;18.860;2024-01-06T03:24:50;97057.73;;;0.55;91.06
62057;BME280;48016;50.284;18.860;2024-01-06T03:27:17;97058.88;;;0.59;91.08
62057;BME280;48016;50.284;18.860;2024-01-06T03:29:43;97056.07;;;0.65;91.11
62057;BME280;48016;50.284;18.860;2024-01-06T03:32:10;97055.86;;;0.69;90.90
62057;BME280;48016;50.284;18.860;2024-01-06T03:34:40;97058.25;;;0.71;90.83
62057;BME280;48016;50.284;18.860;2024-01-06T03:37:07;97055.66;;;0.71;90.75
62057;BME280;48016;50.284;18.860;2024-01-06T03:39:33;97051.20;;;0.73;90.82
62057;BME280;48016;50.284;18.860;2024-01-06T03:42:00;97055.50;;;0.75;90.75
62057;BME280;48016;50.284;18.860;2024-01-06T03:44:27;97059.52;;;0.74;90.78
62057;BME280;48016;50.284;18.860;2024-01-06T03:46:59;97059.42;;;0.76;90.75
62057;BME280;48016;50.284;18.860;2024-01-06T03:49:26;97057.92;;;0.78;90.71
62057;BME280;48016;50.284;18.860;2024-01-06T03:51:53;97061.73;;;0.78;90.74
62057;BME280;48016;50.284;18.860;2024-01-06T03:54:19;97062.39;;;0.78;90.73
62057;BME280;48016;50.284;18.860;2024-01-06T03:56:46;97065.61;;;0.75;90.71
62057;BME280;48016;50.284;18.860;2024-01-06T03:59:13;97067.31;;;0.77;90.84
62057;BME280;48016;50.284;18.860;2024-01-06T04:01:39;97073.46;;;0.76;90.80
62057;BME280;48016;50.284;18.860;2024-01-06T04:04:06;97075.52;;;0.73;90.75
62057;BME280;48016;50.284;18.860;2024-01-06T04:06:33;97079.90;;;0.68;90.84
62057;BME280;48016;50.284;18.860;2024-01-06T04:09:00;97081.90;;;0.68;91.02
62057;BME280;48016;50.284;18.860;2024-01-06T04:11:27;97079.76;;;0.69;91.13
62057;BME280;48016;50.284;18.860;2024-01-06T04:13:54;97081.52;;;0.69;91.10
62057;BME280;48016;50.284;18.860;2024-01-06T04:16:20;97085.79;;;0.72;91.14
62057;BME280;48016;50.284;18.860;2024-01-06T04:18:47;97083.00;;;0.75;91.20
62057;BME280;48016;50.284;18.860;2024-01-06T04:21:14;97082.55;;;0.79;91.03
62057;BME280;48016;50.284;18.860;2024-01-06T04:23:40;97084.46;;;0.84;90.99
62057;BME280;48016;50.284;18.860;2024-01-06T04:26:07;97083.29;;;0.88;90.97
62057;BME280;48016;50.284;18.860;2024-01-06T04:28:33;97088.26;;;0.93;91.06
62057;BME280;48016;50.284;18.860;2024-01-06T04:31:00;97090.20;;;0.97;90.99
62057;BME280;48016;50.284;18.860;2024-01-06T04:33:26;97088.70;;;1.03;91.10
62057;BME280;48016;50.284;18.860;2024-01-06T04:35:53;97085.11;;;1.11;91.01
62057;BME280;48016;50.284;18.860;2024-01-06T04:38:20;97084.14;;;1.18;90.90
62057;BME280;48016;50.284;18.860;2024-01-06T04:40:46;97085.38;;;1.23;90.78
62057;BME280;48016;50.284;18.860;2024-01-06T04:43:13;97090.37;;;1.29;90.67
62057;BME280;48016;50.284;18.860;2024-01-06T04:45:39;97087.02;;;1.35;90.80
62057;BME280;48016;50.284;18.860;2024-01-06T04:48:06;97089.27;;;1.39;90.50
62057;BME280;48016;50.284;18.860;2024-01-06T04:50:33;97089.33;;;1.37;90.25
62057;BME280;48016;50.284;18.860;2024-01-06T04:52:59;97086.27;;;1.36;90.34
62057;BME280;48016;50.284;18.860;2024-01-06T04:55:26;97085.89;;;1.37;90.34
62057;BME280;48016;50.284;18.860;2024-01-06T04:57:52;97086.54;;;1.37;90.35
62057;BME280;48016;50.284;18.860;2024-01-06T05:00:19;97082.98;;;1.37;90.28
62057;BME280;48016;50.284;18.860;2024-01-06T05:02:46;97086.02;;;1.40;90.33
62057;BME280;48016;50.284;18.860;2024-01-06T05:05:12;97086.81;;;1.41;90.16
62057;BME280;48016;50.284;18.860;2024-01-06T05:07:39;97086.20;;;1.42;90.22
62057;BME280;48016;50.284;18.860;2024-01-06T05:10:06;97084.75;;;1.43;90.22
62057;BME280;48016;50.284;18.860;2024-01-06T05:12:33;97086.89;;;1.44;90.27
62057;BME280;48016;50.284;18.860;2024-01-06T05:15:00;97085.75;;;1.47;90.30
62057;BME280;48016;50.284;18.860;2024-01-06T05:17:26;97088.61;;;1.48;90.27
62057;BME280;48016;50.284;18.860;2024-01-06T05:19:53;97088.58;;;1.50;90.19
62057;BME280;48016;50.284;18.860;2024-01-06T05:22:20;97091.61;;;1.53;90.35
62057;BME280;48016;50.284;18.860;2024-01-06T05:24:46;97096.44;;;1.56;90.21
62057;BME280;48016;50.284;18.860;2024-01-06T05:27:13;97097.14;;;1.59;90.14
62057;BME280;48016;50.284;18.860;2024-01-06T05:29:40;97096.90;;;1.58;90.00
62057;BME280;48016;50.284;18.860;2024-01-06T05:32:06;97097.67;;;1.56;89.99
62057;BME280;48016;50.284;18.860;2024-01-06T05:34:33;97100.95;;;1.56;90.03
62057;BME280;48016;50.284;18.860;2024-01-06T05:37:00;97100.02;;;1.55;90.14
62057;BME280;48016;50.284;18.860;2024-01-06T05:39:26;97102.14;;;1.56;90.03
62057;BME280;48016;50.284;18.860;2024-01-06T05:41:53;97102.88;;;1.56;90.01
62057;BME280;48016;50.284;18.860;2024-01-06T05:44:19;97104.24;;;1.58;90.06
62057;BME280;48016;50.284;18.860;2024-01-06T05:46:46;97104.66;;;1.57;89.94
62057;BME280;48016;50.284;18.860;2024-01-06T05:49:13;97108.29;;;1.56;89.90
62057;BME280;48016;50.284;18.860;2024-01-06T05:51:44;97108.25;;;1.53;89.90
62057;BME280;48016;50.284;18.860;2024-01-06T05:54:11;97108.41;;;1.56;90.01
62057;BME280;48016;50.284;18.860;2024-01-06T05:56:38;97106.15;;;1.57;89.88
62057;BME280;48016;50.284;18.860;2024-01-06T05:59:05;97105.40;;;1.57;89.96
62057;BME280;48016;50.284;18.860;2024-01-06T06:01:32;97104.89;;;1.58;90.07
62057;BME280;48016;50.284;18.860;2024-01-06T06:03:58;97102.42;;;1.59;89.94
62057;BME280;48016;50.284;18.860;2024-01-06T06:06:25;97104.11;;;1.59;89.94
62057;BME280;48016;50.284;18.860;2024-01-06T06:08:51;97104.31;;;1.58;90.02
62057;BME280;48016;50.284;18.860;2024-01-06T06:11:18;97107.90;;;1.59;89.99
62057;BME280;48016;50.284;18.860;2024-01-06T06:13:45;97106.30;;;1.57;90.01
62057;BME280;48016;50.284;18.860;2024-01-06T06:16:12;97104.98;;;1.55;90.11
62057;BME280;48016;50.284;18.860;2024-01-06T06:18:39;97104.52;;;1.54;90.10
62057;BME280;48016;50.284;18.860;2024-01-06T06:21:08;97110.22;;;1.53;90.26
62057;BME280;48016;50.284;18.860;2024-01-06T06:23:35;97110.01;;;1.56;90.29
62057;BME280;48016;50.284;18.860;2024-01-06T06:26:08;97118.78;;;1.59;90.27
62057;BME280;48016;50.284;18.860;2024-01-06T06:28:35;97119.16;;;1.64;90.27
62057;BME280;48016;50.284;18.860;2024-01-06T06:31:02;97118.92;;;1.67;90.16
62057;BME280;48016;50.284;18.860;2024-01-06T06:33:29;97122.77;;;1.69;90.14
62057;BME280;48016;50.284;18.860;2024-01-06T06:35:56;97124.94;;;1.73;90.05
62057;BME280;48016;50.284;18.860;2024-01-06T06:38:22;97126.94;;;1.76;90.08
62057;BME280;48016;50.284;18.860;2024-01-06T06:40:49;97129.91;;;1.77;90.09
62057;BME280;48016;50.284;18.860;2024-01-06T06:43:15;97124.91;;;1.78;90.08
62057;BME280;48016;50.284;18.860;2024-01-06T06:45:42;97122.75;;;1.77;90.07
62057;BME280;48016;50.284;18.860;2024-01-06T06:48:08;97120.21;;;1.73;90.15
62057;BME280;48016;50.284;18.860;2024-01-06T06:50:35;97117.63;;;1.73;90.20
62057;BME280;48016;50.284;18.860;2024-01-06T06:53:02;97119.59;;;1.74;90.27
62057;BME280;48016;50.284;18.860;2024-01-06T06:55:29;97125.20;;;1.74;90.34
62057;BME280;48016;50.284;18.860;2024-01-06T06:57:56;97130.70;;;1.77;90.30
62057;BME280;48016;50.284;18.860;2024-01-06T07:00:22;97135.71;;;1.82;90.32
62057;BME280;48016;50.284;18.860;2024-01-06T07:02:49;97136.91;;;1.87;90.24
62057;BME280;48016;50.284;18.860;2024-01-06T07:05:16;97139.02;;;1.92;90.17
62057;BME280;48016;50.284;18.860;2024-01-06T07:07:43;97144.76;;;1.97;90.21
62057;BME280;48016;50.284;18.860;2024-01-06T07:10:13;97139.62;;;2.03;90.19
62057;BME280;48016;50.284;18.860;2024-01-06T07:12:39;97141.98;;;2.10;90.18
62057;BME280;48016;50.284;18.860;2024-01-06T07:15:06;97141.84;;;2.15;90.02
62057;BME280;48016;50.284;18.860;2024-01-06T07:17:35;97138.72;;;2.21;89.97
62057;BME280;48016;50.284;18.860;2024-01-06T07:20:02;97142.48;;;2.27;89.95
62057;BME280;48016;50.284;18.860;2024-01-06T07:22:29;97145.76;;;2.32;89.95
62057;BME280;48016;50.284;18.860;2024-01-06T07:24:55;97149.89;;;2.36;89.94
62057;BME280;48016;50.284;18.860;2024-01-06T07:27:22;97151.02;;;2.38;89.86
62057;BME280;48016;50.284;18.860;2024-01-06T07:29:48;97157.48;;;2.38;89.79
62057;BME280;48016;50.284;18.860;2024-01-06T07:32:15;97153.72;;;2.40;89.88
62057;BME280;48016;50.284;18.860;2024-01-06T07:34:42;97150.06;;;2.43;89.82
62057;BME280;48016;50.284;18.860;2024-01-06T07:37:09;97151.77;;;2.44;89.75
62057;BME280;48016;50.284;18.860;2024-01-06T07:39:36;97153.80;;;2.45;89.79
62057;BME280;48016;50.284;18.860;2024-01-06T07:42:03;97156.94;;;2.49;89.80
62057;BME280;48016;50.284;18.860;2024-01-06T07:44:30;97159.00;;;2.53;89.84
62057;BME280;48016;50.284;18.860;2024-01-06T07:46:56;97161.54;;;2.59;90.00
62057;BME280;48016;50.284;18.860;2024-01-06T07:49:23;97164.63;;;2.63;89.71
62057;BME280;48016;50.284;18.860;2024-01-06T07:51:50;97160.87;;;2.59;89.28
62057;BME280;48016;50.284;18.860;2024-01-06T07:54:16;97161.81;;;2.59;89.56
62057;BME280;48016;50.284;18.860;2024-01-06T07:56:43;97163.11;;;2.58;89.42
62057;BME280;48016;50.284;18.860;2024-01-06T07:59:10;97166.13;;;2.52;89.40
62057;BME280;48016;50.284;18.860;2024-01-06T08:01:37;97168.96;;;2.50;89.52
62057;BME280;48016;50.284;18.860;2024-01-06T08:04:04;97173.66;;;2.48;89.54
62057;BME280;48016;50.284;18.860;2024-01-06T08:06:30;97178.30;;;2.48;89.56
62057;BME280;48016;50.284;18.860;2024-01-06T08:08:57;97178.56;;;2.49;89.58
62057;BME280;48016;50.284;18.860;2024-01-06T08:11:24;97183.91;;;2.54;89.79
62057;BME280;48016;50.284;18.860;2024-01-06T08:13:51;97186.62;;;2.61;89.82
62057;BME280;48016;50.284;18.860;2024-01-06T08:16:18;97187.98;;;2.66;89.76
62057;BME280;48016;50.284;18.860;2024-01-06T08:18:45;97190.34;;;2.72;89.71
62057;BME280;48016;50.284;18.860;2024-01-06T08:21:11;97189.09;;;2.78;89.70
62057;BME280;48016;50.284;18.860;2024-01-06T08:23:38;97188.99;;;2.83;89.68
62057;BME280;48016;50.284;18.860;2024-01-06T08:26:05;97190.83;;;2.89;89.81
62057;BME280;48016;50.284;18.860;2024-01-06T08:28:32;97195.60;;;2.94;89.70
62057;BME280;48016;50.284;18.860;2024-01-06T08:30:58;97201.05;;;2.99;89.66
62057;BME280;48016;50.284;18.860;2024-01-06T08:33:25;97196.44;;;3.01;89.41
62057;BME280;48016;50.284;18.860;2024-01-06T08:35:52;97199.18;;;2.99;89.21
62057;BME280;48016;50.284;18.860;2024-01-06T08:38:18;97203.78;;;2.97;89.29
62057;BME280;48016;50.284;18.860;2024-01-06T08:40:45;97205.38;;;2.99;89.45
62057;BME280;48016;50.284;18.860;2024-01-06T08:43:14;97209.39;;;3.09;89.70
62057;BME280;48016;50.284;18.860;2024-01-06T08:45:40;97208.33;;;3.22;89.49
62057;BME280;48016;50.284;18.860;2024-01-06T08:48:07;97204.08;;;3.30;89.23
62057;BME280;48016;50.284;18.860;2024-01-06T08:50:34;97210.88;;;3.37;88.95
62057;BME280;48016;50.284;18.860;2024-01-06T08:53:00;97209.98;;;3.39;88.80
62057;BME280;48016;50.284;18.860;2024-01-06T08:55:27;97212.30;;;3.43;88.71
62057;BME280;48016;50.284;18.860;2024-01-06T08:57:54;97211.44;;;3.45;88.56
62057;BME280;48016;50.284;18.860;2024-01-06T09:00:20;97209.65;;;3.49;88.81
62057;BME280;48016;50.284;18.860;2024-01-06T09:02:47;97211.45;;;3.54;88.67
62057;BME280;48016;50.284;18.860;2024-01-06T09:05:15;97210.80;;;3.58;88.45
62057;BME280;48016;50.284;18.860;2024-01-06T09:07:41;97220.34;;;3.63;88.59
62057;BME280;48016;50.284;18.860;2024-01-06T09:10:08;97216.71;;;3.65;88.40
62057;BME280;48016;50.284;18.860;2024-01-06T09:12:36;97217.30;;;3.68;88.49
62057;BME280;48016;50.284;18.860;2024-01-06T09:15:03;97217.89;;;3.73;88.61
62057;BME280;48016;50.284;18.860;2024-01-06T09:17:29;97217.54;;;3.80;88.65
62057;BME280;48016;50.284;18.860;2024-01-06T09:19:56;97218.88;;;3.89;88.78
62057;BME280;48016;50.284;18.860;2024-01-06T09:22:23;97223.55;;;3.98;88.74
62057;BME280;48016;50.284;18.860;2024-01-06T09:24:50;97223.23;;;4.04;88.76
62057;BME280;48016;50.284;18.860;2024-01-06T09:27:16;97222.33;;;4.10;88.57
62057;BME280;48016;50.284;18.860;2024-01-06T09:29:43;97224.96;;;4.14;88.48
62057;BME280;48016;50.284;18.860;2024-01-06T09:32:10;97229.16;;;4.18;88.51
62057;BME280;48016;50.284;18.860;2024-01-06T09:34:36;97231.55;;;4.21;88.41
62057;BME280;48016;50.284;18.860;2024-01-06T09:37:03;97236.86;;;4.25;88.35
62057;BME280;48016;50.284;18.860;2024-01-06T09:39:30;97237.18;;;4.27;88.21
62057;BME280;48016;50.284;18.860;2024-01-06T09:41:57;97236.37;;;4.23;87.91
62057;BME280;48016;50.284;18.860;2024-01-06T09:44:25;97234.19;;;4.19;88.07
62057;BME280;48016;50.284;18.860;2024-01-06T09:46:52;97237.23;;;4.20;88.00
62057;BME280;48016;50.284;18.860;2024-01-06T09:49:23;97237.25;;;4.22;87.99
62057;BME280;48016;50.284;18.860;2024-01-06T09:51:52;97235.00;;;4.22;87.70
62057;BME280;48016;50.284;18.860;2024-01-06T09:54:22;97230.46;;;4.22;87.77
62057;BME280;48016;50.284;18.860;2024-01-06T09:56:52;97233.02;;;4.22;87.74
62057;BME280;48016;50.284;18.860;2024-01-06T09:59:19;97231.48;;;4.19;87.60
62057;BME280;48016;50.284;18.860;2024-01-06T10:01:46;97230.84;;;4.20;87.75
62057;BME280;48016;50.284;18.860;2024-01-06T10:04:13;97230.90;;;4.20;87.82
62057;BME280;48016;50.284;18.860;2024-01-06T10:06:41;97228.75;;;4.16;87.55
62057;BME280;48016;50.284;18.860;2024-01-06T10:09:08;97232.38;;;4.10;87.73
62057;BME280;48016;50.284;18.860;2024-01-06T10:11:35;97228.77;;;4.09;87.99
62057;BME280;48016;50.284;18.860;2024-01-06T10:14:03;97234.05;;;4.11;88.02
62057;BME280;48016;50.284;18.860;2024-01-06T10:16:30;97231.91;;;4.08;87.97
62057;BME280;48016;50.284;18.860;2024-01-06T10:18:56;97233.42;;;4.05;87.97
62057;BME280;48016;50.284;18.860;2024-01-06T10:21:25;97232.08;;;4.02;87.88
62057;BME280;48016;50.284;18.860;2024-01-06T10:23:54;97233.95;;;3.99;87.99
62057;BME280;48016;50.284;18.860;2024-01-06T10:26:21;97233.19;;;3.99;88.06
62057;BME280;48016;50.284;18.860;2024-01-06T10:28:48;97228.54;;;3.96;87.99
62057;BME280;48016;50.284;18.860;2024-01-06T10:31:17;97227.87;;;3.97;88.17
62057;BME280;48016;50.284;18.860;2024-01-06T10:33:44;97226.08;;;4.01;88.30
62057;BME280;48016;50.284;18.860;2024-01-06T10:36:11;97232.43;;;4.07;88.27
62057;BME280;48016;50.284;18.860;2024-01-06T10:38:40;97229.70;;;4.10;88.27
62057;BME280;48016;50.284;18.860;2024-01-06T10:41:06;97226.70;;;4.13;88.03
62057;BME280;48016;50.284;18.860;2024-01-06T10:43:34;97229.48;;;4.10;87.87
62057;BME280;48016;50.284;18.860;2024-01-06T10:46:03;97232.84;;;4.05;87.77
62057;BME280;48016;50.284;18.860;2024-01-06T10:48:34;97223.36;;;4.00;87.77
62057;BME280;48016;50.284;18.860;2024-01-06T10:51:01;97225.63;;;4.00;88.05
62057;BME280;48016;50.284;18.860;2024-01-06T10:53:29;97225.27;;;4.04;88.15
62057;BME280;48016;50.284;18.860;2024-01-06T10:55:57;97225.25;;;4.06;88.13
62057;BME280;48016;50.284;18.860;2024-01-06T10:58:24;97222.58;;;4.12;88.26
62057;BME280;48016;50.284;18.860;2024-01-06T11:00:51;97222.65;;;4.07;87.84
62057;BME280;48016;50.284;18.860;2024-01-06T11:03:18;97219.78;;;4.02;87.88
62057;BME280;48016;50.284;18.860;2024-01-06T11:05:45;97221.30;;;4.04;88.35
62057;BME280;48016;50.284;18.860;2024-01-06T11:08:12;97216.31;;;4.06;88.02
62057;BME280;48016;50.284;18.860;2024-01-06T11:10:40;97210.80;;;4.03;88.08
62057;BME280;48016;50.284;18.860;2024-01-06T11:13:15;97212.34;;;3.99;88.19
62057;BME280;48016;50.284;18.860;2024-01-06T11:15:48;97214.08;;;3.98;88.29
62057;BME280;48016;50.284;18.860;2024-01-06T11:18:31;97214.90;;;3.91;88.30
62057;BME280;48016;50.284;18.860;2024-01-06T11:21:20;97217.17;;;3.90;88.69
62057;BME280;48016;50.284;18.860;2024-01-06T11:26:32;97220.27;;;3.92;88.70
62057;BME280;48016;50.284;18.860;2024-01-06T11:29:00;97219.15;;;3.92;88.84
62057;BME280;48016;50.284;18.860;2024-01-06T11:31:30;97214.88;;;3.95;88.87
62057;BME280;48016;50.284;18.860;2024-01-06T11:34:20;97209.23;;;3.94;89.02
62057;BME280;48016;50.284;18.860;2024-01-06T11:36:48;97206.77;;;3.93;89.21
62057;BME280;48016;50.284;18.860;2024-01-06T11:39:34;97207.98;;;3.95;89.30
62057;BME280;48016;50.284;18.860;2024-01-06T11:42:02;97205.02;;;4.00;89.51
62057;BME280;48016;50.284;18.860;2024-01-06T11:44:29;97205.39;;;4.05;89.34
62057;BME280;48016;50.284;18.860;2024-01-06T11:46:56;97200.03;;;4.04;89.51
62057;BME280;48016;50.284;18.860;2024-01-06T11:49:28;97199.73;;;4.04;89.42
62057;BME280;48016;50.284;18.860;2024-01-06T11:51:59;97195.42;;;4.04;89.28
62057;BME280;48016;50.284;18.860;2024-01-06T11:54:26;97195.08;;;4.03;89.17
62057;BME280;48016;50.284;18.860;2024-01-06T11:56:53;97194.98;;;4.00;89.36
62057;BME280;48016;50.284;18.860;2024-01-06T11:59:20;97192.95;;;4.01;89.52
62057;BME280;48016;50.284;18.860;2024-01-06T12:01:47;97197.11;;;4.00;89.74
62057;BME280;48016;50.284;18.860;2024-01-06T12:04:14;97195.35;;;4.00;89.67
62057;BME280;48016;50.284;18.860;2024-01-06T12:06:44;97193.13;;;4.02;89.50
62057;BME280;48016;50.284;18.860;2024-01-06T12:09:12;97195.77;;;4.02;89.66
62057;BME280;48016;50.284;18.860;2024-01-06T12:11:41;97197.00;;;4.00;89.51
62057;BME280;48016;50.284;18.860;2024-01-06T12:14:10;97195.15;;;3.98;89.41
62057;BME280;48016;50.284;18.860;2024-01-06T12:16:37;97199.59;;;3.98;89.38
62057;BME280;48016;50.284;18.860;2024-01-06T12:19:03;97201.13;;;4.00;89.34
62057;BME280;48016;50.284;18.860;2024-01-06T12:21:30;97203.16;;;4.00;89.46
62057;BME280;48016;50.284;18.860;2024-01-06T12:24:16;97203.43;;;3.97;89.37
62057;BME280;48016;50.284;18.860;2024-01-06T12:26:44;97208.10;;;3.96;89.65
62057;BME280;48016;50.284;18.860;2024-01-06T12:29:12;97204.48;;;3.99;89.57
62057;BME280;48016;50.284;18.860;2024-01-06T12:31:39;97206.88;;;3.94;89.31
62057;BME280;48016;50.284;18.860;2024-01-06T12:34:07;97209.97;;;3.90;89.41
62057;BME280;48016;50.284;18.860;2024-01-06T12:36:37;97214.09;;;3.88;89.29
62057;BME280;48016;50.284;18.860;2024-01-06T12:39:05;97219.06;;;3.84;89.15
62057;BME280;48016;50.284;18.860;2024-01-06T12:41:31;97217.59;;;3.86;89.38
62057;BME280;48016;50.284;18.860;2024-01-06T12:43:59;97218.11;;;3.85;89.36
62057;BME280;48016;50.284;18.860;2024-01-06T12:46:27;97222.63;;;3.87;89.27
62057;BME280;48016;50.284;18.860;2024-01-06T12:48:54;97221.27;;;3.80;89.20
62057;BME280;48016;50.284;18.860;2024-01-06T12:51:20;97220.61;;;3.73;89.29
62057;BME280;48016;50.284;18.860;2024-01-06T12:53:47;97222.54;;;3.73;89.57
62057;BME280;48016;50.284;18.860;2024-01-06T12:56:13;97221.54;;;3.76;89.65
62057;BME280;48016;50.284;18.860;2024-01-06T12:58:41;97218.65;;;3.74;89.43
62057;BME280;48016;50.284;18.860;2024-01-06T13:01:08;97220.38;;;3.67;89.61
62057;BME280;48016;50.284;18.860;2024-01-06T13:03:34;97223.89;;;3.61;89.74